Flight Track Log - Related Links

Times and Time Zones

All times are in EDT time to prevent confusion due to time zone crossing. See the UPS2612 flight status page for this flight to view local times or setup timezone preferences in your user account.

Time Position Orientation Groundspeed Altitude Reporting Facility
EDT Latitude Longitude Course Direction KTS MPH feet Rate Location/Type
Thu 03:29:35 PM 38.1947 -85.7517 337° Northwest 171 197 1,700  Level FAA TRACON SMA TRACON (SMA)
Thu 03:29:54 PM 38.2083 -85.7592 337° Northwest 174 200 2,200 1,350 Climbing FAA TRACON SMA TRACON (SMA)
Thu 03:30:15 PM 38.2253 -85.7736 326° Northwest 186 214 2,600 1,364 Climbing FAA TRACON SMA TRACON (SMA)
Thu 03:30:38 PM 38.2456 -85.7881 331° Northwest 211 243 3,200 1,714 Climbing FAA TRACON SMA TRACON (SMA)
Thu 03:30:57 PM 38.2622 -85.8000 331° Northwest 224 258 3,800 1,929 Climbing FAA TRACON SMA TRACON (SMA)
Thu 03:31:34 PM 38.2844 -85.8439 303° West 261 300 5,000 2,172 Climbing FAA TRACON SMA TRACON (SMA)
Thu 03:31:55 PM 38.2769 -85.8781 254° West 265 305 5,900 2,634 Climbing FAA TRACON SMA TRACON (SMA)
Thu 03:32:15 PM 38.2650 -85.9028 238° Southwest 267 307 6,800 2,615 Climbing FAA TRACON SMA TRACON (SMA)
Thu 03:32:34 PM 38.2475 -85.9211 219° Southwest 270 311 7,600 2,550 Climbing FAA TRACON SMA TRACON (SMA)
Thu 03:32:55 PM 38.2247 -85.9439 218° Southwest 272 313 8,500 2,400 Climbing FAA TRACON SMA TRACON (SMA)
Thu 03:33:14 PM 38.2064 -85.9636 220° Southwest 278 320 9,200 2,250 Climbing FAA TRACON SMA TRACON (SMA)
Thu 03:33:35 PM 38.1881 -85.9844 222° Southwest 285 328 10,000 2,049 Climbing FAA TRACON SMA TRACON (SMA)
Thu 03:33:55 PM 38.1647 -86.0114 222° Southwest 294 338 10,600 1,350 Climbing FAA TRACON SMA TRACON (SMA)
Thu 03:34:15 PM 38.1444 -86.0342 221° Southwest 310 357 10,900 1,050 Climbing FAA TRACON SMA TRACON (SMA)
Thu 03:34:35 PM 38.1231 -86.0583 222° Southwest 326 375 11,300 1,846 Climbing FAA TRACON SMA TRACON (SMA)
Thu 03:34:54 PM 38.0961 -86.0903 223° Southwest 342 394 12,100 2,400 Climbing FAA TRACON SMA TRACON (SMA)
Thu 03:35:15 PM 38.0803 -86.1222 238° Southwest 350 403 12,900 2,100 Climbing FAA TRACON SMA TRACON (SMA)
Thu 03:35:34 PM 38.0711 -86.1583 252° West 353 406 13,500 2,250 Climbing FAA TRACON SMA TRACON (SMA)
Thu 03:35:55 PM 38.0622 -86.2058 257° West 358 412 14,400 2,488 Climbing FAA TRACON SMA TRACON (SMA)
Thu 03:36:15 PM 38.0553 -86.2439 257° West 360 414 15,200 2,700 Climbing FAA TRACON SMA TRACON (SMA)
Thu 03:36:35 PM 38.0497 -86.2922 262° West 361 415 16,200 2,550 Climbing FAA TRACON SMA TRACON (SMA)
Thu 03:36:55 PM 38.0467 -86.3308 264° West 360 414 16,900 2,154 Climbing FAA TRACON SMA TRACON (SMA)
Thu 03:37:14 PM 38.0439 -86.3697 265° West 360 414 17,600 1,950 Climbing FAA TRACON SMA TRACON (SMA)
Thu 03:37:35 PM 38.0414 -86.4089 265° West 361 415 18,200 2,049 Climbing FAA TRACON SMA TRACON (SMA)
Thu 03:37:55 PM 38.0375 -86.4578 264° West 363 418 19,000 2,100 Climbing FAA TRACON SMA TRACON (SMA)
Thu 03:38:15 PM 38.0344 -86.4972 264° West 363 418 19,600 1,800 Climbing FAA TRACON SMA TRACON (SMA)
Thu 03:38:35 PM 38.0319 -86.5364 265° West 364 419 20,200 2,000 Climbing FAA TRACON SMA TRACON (SMA)
Thu 03:38:54 PM 38.0281 -86.5858 264° West 366 421 20,900 1,800 Climbing FAA TRACON SMA TRACON (SMA)
Thu 03:39:15 PM 38.0253 -86.6256 265° West 368 423 21,400 1,463 Climbing FAA TRACON SMA TRACON (SMA)
Thu 03:39:35 PM 38.0253 -86.6658 270° West 371 427 21,900 1,650 Climbing FAA TRACON SMA TRACON (SMA)
Thu 03:39:55 PM 38.0317 -86.7164 279° West 376 433 22,500 1,650 Climbing FAA TRACON SMA TRACON (SMA)
Thu 03:40:15 PM 38.0397 -86.7564 284° West 381 438 23,000 1,256 Climbing FAA TRACON SMA TRACON (SMA)
Thu 03:40:38 PM 38.0486 -86.7972 285° West 386 444 23,400 1,535 Climbing FAA TRACON SMA TRACON (SMA)
Thu 03:40:58 PM 38.0603 -86.8589 284° West 390 449 24,100 1,622 Climbing FAA TRACON SMA TRACON (SMA)
Thu 03:41:15 PM 38.0656 -86.8897 282° West 390 449 24,400 1,167 Climbing FAA TRACON SMA TRACON (SMA)
Thu 03:41:34 PM 38.0744 -86.9319 285° West 396 456 24,800 1,350 Climbing FAA TRACON SMA TRACON (SMA)
Thu 03:41:55 PM 38.0850 -86.9847 284° West 401 461 25,300 1,424 Climbing FAA TRACON SMA TRACON (SMA)
Thu 03:42:33 PM 38.0950 -87.0583 280° West 405 466 26,200 1,440 Climbing Indianapolis Center
Thu 03:43:35 PM 38.1236 -87.2042 284° West 417 480 27,700 1,452 Climbing Indianapolis Center
Thu 03:44:37 PM 38.1511 -87.3536 283° West 426 490 29,200 1,452 Climbing Indianapolis Center
Thu 03:45:39 PM 38.1797 -87.5050 284° West 436 502 30,700 1,742 Climbing Indianapolis Center
Thu 03:46:41 PM 38.2081 -87.6581 283° West 441 507 32,800 2,032 Climbing Indianapolis Center
Thu 03:47:43 PM 38.2344 -87.8067 283° West 431 496 34,900 1,548 Climbing Indianapolis Center
Thu 03:48:45 PM 38.2631 -87.9514 284° West 424 488 36,000 532 Climbing Indianapolis Center
Thu 03:49:47 PM 38.2947 -88.1244 283° West 418 481 36,000  Level Indianapolis Center
Thu 03:50:49 PM 38.3189 -88.2678 282° West 414 476 36,000  Level Indianapolis Center
Thu 03:51:51 PM 38.3450 -88.4122 283° West 416 479 36,000  Level Indianapolis Center
Thu 03:52:54 PM 38.3697 -88.5556 282° West 414 476 36,000  Level Indianapolis Center
Thu 03:54:01 PM 38.3997 -88.7297 282° West 421 484 36,000  Level Kansas City Center
Thu 03:55:04 PM 38.4247 -88.8733 283° West 418 481 36,000  Level Kansas City Center
Thu 03:56:06 PM 38.4519 -89.0294 283° West 420 483 36,000  Level Kansas City Center
Thu 03:57:06 PM 38.4772 -89.1750 283° West 421 484 36,000  Level Kansas City Center
Thu 03:58:10 PM 38.5039 -89.3319 282° West 421 484 36,000  Level Kansas City Center
Thu 03:59:11 PM 38.5289 -89.4781 282° West 423 487 36,000  Level Kansas City Center
Thu 04:00:12 PM 38.5536 -89.6253 282° West 424 488 36,000  Level Kansas City Center
Thu 04:01:16 PM 38.5700 -89.7736 278° West 427 491 36,000  Level Kansas City Center
Thu 04:02:17 PM 38.5692 -89.9214 270° West 419 482 36,000  Level Kansas City Center
Thu 04:03:18 PM 38.5686 -90.0692 270° West 417 480 36,000  Level Kansas City Center
Thu 04:04:22 PM 38.5686 -90.2197 270° West 419 482 36,000  Level Kansas City Center
Thu 04:05:22 PM 38.5889 -90.3778 279° West 424 488 36,000  Level Kansas City Center
Thu 04:06:27 PM 38.6181 -90.5247 284° West 425 489 36,000  Level Kansas City Center
Thu 04:07:27 PM 38.6494 -90.7008 283° West 424 488 36,000  Level Kansas City Center
Thu 04:08:31 PM 38.6717 -90.8489 281° West 425 489 36,000  Level Kansas City Center
Thu 04:09:31 PM 38.6972 -90.9947 283° West 424 488 36,000  Level Kansas City Center
Thu 04:10:33 PM 38.7225 -91.1383 283° West 420 483 36,000  Level Kansas City Center
Thu 04:11:36 PM 38.7472 -91.2817 283° West 416 479 36,000  Level Kansas City Center
Thu 04:12:37 PM 38.7717 -91.4244 282° West 413 475 36,000  Level Kansas City Center
Thu 04:13:41 PM 38.7964 -91.5653 283° West 410 472 36,000  Level Kansas City Center
Thu 04:14:41 PM 38.8256 -91.7367 282° West 408 470 36,000  Level Kansas City Center
Thu 04:15:43 PM 38.8489 -91.8758 282° West 404 465 36,000  Level Kansas City Center
Thu 04:16:47 PM 38.8711 -92.0169 281° West 403 464 36,000  Level Kansas City Center
Thu 04:17:47 PM 38.8953 -92.1606 282° West 406 467 36,000  Level Kansas City Center
Thu 04:18:49 PM 38.9192 -92.3053 282° West 410 472 36,000  Level Kansas City Center
Thu 04:19:53 PM 38.9431 -92.4533 282° West 417 480 36,000  Level Kansas City Center
Thu 04:20:54 PM 38.9725 -92.6328 282° West 423 487 36,000  Level Kansas City Center
Thu 04:21:57 PM 38.9958 -92.7853 281° West 429 494 36,000  Level Kansas City Center
Thu 04:22:58 PM 39.0219 -92.9444 282° West 433 498 36,000  Level Kansas City Center
Thu 04:24:01 PM 39.0450 -93.0969 281° West 435 501 36,000  Level Kansas City Center
Thu 04:25:02 PM 39.0686 -93.2492 281° West 435 501 36,000  Level Kansas City Center
Thu 04:26:03 PM 39.0928 -93.4150 281° West 435 501 36,000  Level Kansas City Center
Thu 04:27:05 PM 39.1153 -93.5594 281° West 431 496 36,000  Level Kansas City Center
Thu 04:28:08 PM 39.1403 -93.7236 281° West 419 482 36,000  Level Kansas City Center
Thu 04:29:09 PM 39.1611 -93.8636 281° West 415 478 36,000  Level Kansas City Center
Thu 04:30:13 PM 39.1842 -94.0256 280° West 412 474 36,000  Level Kansas City Center
Thu 04:31:13 PM 39.2047 -94.1639 281° West 411 473 36,000  Level Kansas City Center
Thu 04:32:17 PM 39.2278 -94.3261 280° West 410 472 36,000  Level Kansas City Center
Thu 04:33:18 PM 39.2481 -94.4653 281° West 412 474 36,000  Level Kansas City Center
Thu 04:34:22 PM 39.2714 -94.6281 281° West 413 475 36,000  Level Kansas City Center
Thu 04:35:22 PM 39.2878 -94.7669 279° West 412 474 36,000  Level Kansas City Center
Thu 04:36:25 PM 39.3014 -94.9333 276° West 417 480 36,000  Level Kansas City Center
Thu 04:37:26 PM 39.3133 -95.0753 276° West 418 481 36,000  Level Kansas City Center
Thu 04:38:29 PM 39.3258 -95.2367 276° West 419 482 36,000  Level Kansas City Center
Thu 04:39:30 PM 39.3389 -95.3967 276° West 419 482 36,000  Level Kansas City Center
Thu 04:40:34 PM 39.3506 -95.5431 276° West 418 481 36,000  Level Kansas City Center
Thu 04:41:34 PM 39.3617 -95.6844 276° West 415 478 36,000  Level Kansas City Center
Thu 04:42:38 PM 39.3728 -95.8508 275° West 416 479 36,000  Level Kansas City Center
Thu 04:43:38 PM 39.3825 -95.9911 275° West 412 474 36,000  Level Kansas City Center
Thu 04:44:42 PM 39.3950 -96.1550 276° West 409 471 36,000  Level Kansas City Center
Thu 04:45:42 PM 39.4031 -96.2811 275° West 404 465 36,000  Level Kansas City Center
Thu 04:46:44 PM 39.4153 -96.4547 275° West 405 466 36,000  Level Kansas City Center
Thu 04:47:48 PM 39.4250 -96.5931 275° West 405 466 36,000  Level Kansas City Center
Thu 04:48:48 PM 39.4358 -96.7531 275° West 401 461 36,000  Level Kansas City Center
Thu 04:49:52 PM 39.4444 -96.8919 275° West 404 465 36,000  Level Kansas City Center
Thu 04:50:52 PM 39.4544 -97.0294 275° West 402 463 36,000  Level Kansas City Center
Thu 04:51:56 PM 39.4658 -97.1900 275° West 402 463 36,000  Level Kansas City Center
Thu 04:52:56 PM 39.4731 -97.3281 274° West 402 463 36,000  Level Kansas City Center
Thu 04:54:01 PM 39.4839 -97.4892 275° West 403 464 36,000  Level Kansas City Center
Thu 04:55:01 PM 39.4947 -97.6450 275° West 401 461 36,000  Level Kansas City Center
Thu 04:56:02 PM 39.5006 -97.7867 273° West 401 461 36,000  Level Kansas City Center
Thu 04:57:05 PM 39.5075 -97.9206 274° West 402 463 36,000  Level Kansas City Center
Thu 04:58:07 PM 39.5153 -98.0633 274° West 399 459 36,000  Level Kansas City Center
Thu 04:58:54 PM 39.5225 -98.2056 274° West 400 460 36,000  Level Denver Center
Thu 04:59:56 PM 39.5308 -98.3494 274° West 400 460 36,000  Level Denver Center
Thu 05:00:58 PM 39.5378 -98.4944 274° West 403 464 36,000  Level Denver Center
Thu 05:02:00 PM 39.5453 -98.6397 274° West 404 465 36,000  Level Denver Center
Thu 05:03:02 PM 39.5519 -98.7853 273° West 403 464 36,000  Level Denver Center
Thu 05:04:04 PM 39.5608 -98.9325 275° West 408 470 36,000  Level Denver Center
Thu 05:05:06 PM 39.5681 -99.0778 274° West 405 466 36,000  Level Denver Center
Thu 05:06:08 PM 39.5767 -99.2539 274° West 406 467 36,000  Level Denver Center
Thu 05:07:10 PM 39.5828 -99.3994 273° West 405 466 36,000  Level Denver Center
Thu 05:08:12 PM 39.5892 -99.5433 273° West 400 460 36,000  Level Denver Center
Thu 05:09:14 PM 39.5947 -99.6858 273° West 396 456 36,000  Level Denver Center
Thu 05:10:16 PM 39.6008 -99.8281 273° West 395 455 36,000  Level Denver Center
Thu 05:11:18 PM 39.6067 -99.9878 273° West 393 452 36,000  Level Denver Center
Thu 05:12:20 PM 39.6122 -100.1208 273° West 387 445 36,000  Level Denver Center
Thu 05:13:22 PM 39.6172 -100.2775 272° West 389 448 36,000  Level Denver Center
Thu 05:14:24 PM 39.6225 -100.4125 273° West 390 449 36,000  Level Denver Center
Thu 05:15:26 PM 39.6272 -100.5467 273° West 391 450 36,000  Level Denver Center
Thu 05:16:28 PM 39.6325 -100.7039 273° West 390 449 36,000  Level Denver Center
Thu 05:17:31 PM 39.6361 -100.8417 272° West 395 455 36,000  Level Denver Center
Thu 05:18:33 PM 39.6417 -101.0028 273° West 399 459 36,000  Level Denver Center
Thu 05:19:35 PM 39.6447 -101.1414 272° West 401 461 36,000  Level Denver Center
Thu 05:20:37 PM 39.6500 -101.3044 272° West 404 465 36,000  Level Denver Center
Thu 05:21:39 PM 39.6536 -101.4456 272° West 406 467 36,000  Level Denver Center
Thu 05:22:41 PM 39.6569 -101.6064 272° West 401 461 36,000  Level Denver Center
Thu 05:23:43 PM 39.6608 -101.7450 272° West 401 461 36,000 48 Level Denver Center
Thu 05:24:45 PM 39.6644 -101.9044 272° West 396 456 36,100 435 Climbing Denver Center
Thu 05:25:47 PM 39.6675 -102.0422 272° West 398 458 36,900 823 Climbing Denver Center
Thu 05:26:49 PM 39.6703 -102.2019 271° West 397 457 37,800 532 Climbing Denver Center
Thu 05:27:51 PM 39.6744 -102.3406 272° West 400 460 38,000 97 Climbing Denver Center
Thu 05:28:53 PM 39.6758 -102.4794 271° West 402 463 38,000  Level Denver Center
Thu 05:29:55 PM 39.6789 -102.6411 271° West 401 461 38,000  Level Denver Center
Thu 05:30:57 PM 39.6817 -102.7839 271° West 400 460 38,000  Level Denver Center
Thu 05:31:59 PM 39.6839 -102.9278 271° West 398 458 38,000  Level Denver Center
Thu 05:33:01 PM 39.6844 -103.0711 270° West 396 456 38,000  Level Denver Center
Thu 05:34:03 PM 39.6878 -103.2394 272° West 397 457 38,000  Level Denver Center
Thu 05:35:05 PM 39.6892 -103.3817 271° West 394 453 38,000  Level Denver Center
Thu 05:36:07 PM 39.6906 -103.5261 271° West 398 458 38,000  Level Denver Center
Thu 05:37:09 PM 39.6914 -103.6708 270° West 399 459 38,000  Level Denver Center
Thu 05:38:11 PM 39.6925 -103.8186 271° West 408 470 38,000  Level Denver Center
Thu 05:39:13 PM 39.6919 -103.9633 270° West 403 464 38,000  Level Denver Center
Thu 05:40:16 PM 39.6914 -104.1103 270° West 402 463 38,000  Level Denver Center
Thu 05:41:18 PM 39.6997 -104.2764 274° West 395 455 38,000  Level Denver Center
Thu 05:42:20 PM 39.7153 -104.4192 278° West 394 453 38,000  Level Denver Center
Thu 05:43:22 PM 39.7319 -104.5592 279° West 394 453 38,000  Level Denver Center
Thu 05:44:24 PM 39.7475 -104.7000 278° West 397 457 38,000  Level Denver Center
Thu 05:45:26 PM 39.7647 -104.8406 279° West 393 452 38,000 48 Level Denver Center
Thu 05:46:28 PM 39.7822 -105.0056 278° West 391 450 38,100  Climbing Denver Center
Thu 05:47:30 PM 39.7975 -105.1469 278° West 392 451 38,000 -48 Descending Denver Center
Thu 05:48:32 PM 39.8128 -105.2867 278° West 390 449 38,000  Level Denver Center
Thu 05:49:34 PM 39.8272 -105.4264 278° West 383 441 38,000  Level Denver Center
Thu 05:50:36 PM 39.8428 -105.5636 278° West 381 438 38,000  Level Denver Center
Thu 05:51:38 PM 39.8553 -105.7025 277° West 382 440 38,000  Level Denver Center
Thu 05:52:40 PM 39.8725 -105.8578 278° West 367 422 38,000  Level Denver Center
Thu 05:53:42 PM 39.8869 -105.9942 278° West 375 432 38,000  Level Denver Center
Thu 05:54:44 PM 39.9003 -106.1303 277° West 377 434 38,000  Level Denver Center
Thu 05:55:46 PM 39.9139 -106.2678 277° West 379 436 38,000  Level Denver Center
Thu 05:56:48 PM 39.9272 -106.4061 277° West 382 440 38,000  Level Denver Center
Thu 05:57:50 PM 39.9408 -106.5361 278° West 385 443 38,000  Level Denver Center
Thu 05:58:52 PM 39.9572 -106.7042 277° West 386 444 38,000  Level Denver Center
Thu 05:59:54 PM 39.9694 -106.8356 277° West 383 441 38,000  Level Denver Center
Thu 06:00:56 PM 39.9817 -106.9672 277° West 383 441 38,000  Level Denver Center
Thu 06:01:58 PM 39.9956 -107.1211 277° West 383 441 38,000  Level Denver Center
Thu 06:03:01 PM 40.0081 -107.2522 277° West 382 440 38,000  Level Denver Center
Thu 06:04:03 PM 40.0217 -107.4067 277° West 384 442 38,000  Level Denver Center
Thu 06:05:05 PM 40.0336 -107.5381 277° West 382 440 38,000  Level Denver Center
Thu 06:06:07 PM 40.0475 -107.6914 277° West 382 440 38,000  Level Denver Center
Thu 06:07:09 PM 40.0600 -107.8231 277° West 384 442 38,000  Level Denver Center
Thu 06:08:23 PM 40.0736 -107.9975 276° West 382 440 38,000  Level Denver Center
Thu 06:09:25 PM 40.0783 -108.1508 272° West 380 437 38,000  Level Denver Center
Thu 06:10:27 PM 40.0853 -108.2828 274° West 381 438 38,000  Level Denver Center
Thu 06:11:29 PM 40.0911 -108.4383 273° West 383 441 38,000  Level Denver Center
Thu 06:12:31 PM 40.0964 -108.5692 273° West 381 438 38,000  Level Denver Center
Thu 06:13:33 PM 40.1028 -108.7242 273° West 384 442 38,000  Level Denver Center
Thu 06:14:35 PM 40.1078 -108.8561 273° West 383 441 38,000  Level Denver Center
Thu 06:15:05 PM 40.1097 -108.9228 272° West 383 441 38,000  Level Salt Lake Center
Thu 06:16:07 PM 40.1158 -109.0772 273° West 383 441 38,000  Level Salt Lake Center
Thu 06:16:39 PM 40.1181 -109.1439 273° West 385 443 38,000  Level Denver Center
Thu 06:17:42 PM 40.1236 -109.3014 273° West 390 449 38,000 -326 Level Denver Center
Thu 06:18:11 PM 40.1261 -109.3678 273° West 388 447 37,500 -1,200 Descending Salt Lake Center
Thu 06:19:12 PM 40.1308 -109.5033 273° West 390 449 36,200 -1,268 Descending Salt Lake Center
Thu 06:20:14 PM 40.1353 -109.6603 272° West 388 447 34,900 -1,113 Descending Salt Lake Center
Thu 06:21:16 PM 40.1397 -109.7936 273° West 386 444 33,900 -968 Descending Salt Lake Center
Thu 06:22:18 PM 40.1436 -109.9244 272° West 380 437 32,900 -976 Descending Salt Lake Center
Thu 06:23:19 PM 40.1481 -110.0786 272° West 379 436 31,900 -927 Descending Salt Lake Center
Thu 06:24:21 PM 40.1492 -110.2083 271° West 375 432 31,000 -864 Descending Salt Lake Center
Thu 06:25:24 PM 40.1458 -110.3589 268° West 372 428 30,100 -484 Descending Salt Lake Center
Thu 06:26:25 PM 40.1456 -110.4883 270° West 371 427 30,000 -49 Descending Salt Lake Center
Thu 06:27:26 PM 40.1444 -110.6428 270° West 380 437 30,000  Level Salt Lake Center
Thu 06:28:28 PM 40.1425 -110.7747 269° West 381 438 30,000 -774 Level Salt Lake Center
Thu 06:29:30 PM 40.1422 -110.9306 270° West 384 442 28,400 -1,659 Descending Salt Lake Center
Thu 06:30:31 PM 40.1400 -111.0561 269° West 388 447 26,600 -1,902 Descending Salt Lake Center
Thu 06:31:33 PM 40.1378 -111.1956 269° West 384 442 24,500 -2,032 Descending Salt Lake Center
Thu 06:32:35 PM 40.1358 -111.3319 269° West 376 433 22,400 -2,226 Descending Salt Lake Center
Thu 06:33:37 PM 40.1331 -111.4922 269° West 368 423 19,900 -2,129 Descending Salt Lake Center
Thu 06:34:08 PM 40.1333 -111.5633 270° West 347 399 19,100 -885 Descending Salt Lake Center
Thu 06:34:38 PM 40.1558 -111.6119 301° West 347 399 19,000 -98 Descending Salt Lake Center
Thu 06:35:09 PM 40.1750 -111.6839 289° West 347 399 19,000 -677 Level Salt Lake Center
Thu 06:35:40 PM 40.1972 -111.7256 305° West 346 398 18,300 -1,279 Descending Salt Lake Center
Thu 06:36:10 PM 40.2189 -111.7956 292° West 343 395 17,700 -774 Descending Salt Lake Center
Thu 06:36:42 PM 40.2383 -111.8394 300° West 345 397 17,500 -545 Descending Salt Lake Center
Thu 06:37:05 PM 40.2553 -111.8928 293° West 342 394 17,200 -590 Descending Salt Lake Center
Thu 06:37:43 PM 40.2872 -111.9472 308° West 346 398 16,900 -900 Descending Salt Lake Center
Thu 06:38:05 PM 40.3278 -111.9864 324° Northwest 363 418 16,300 -1,258 Descending Salt Lake Center
Thu 06:38:45 PM 40.3750 -112.0150 335° Northwest 363 418 15,600 -1,279 Descending Salt Lake Center
Thu 06:39:06 PM 40.4156 -112.0494 327° Northwest 362 417 15,000 -1,548 Descending Salt Lake Center
Thu 06:39:47 PM 40.4697 -112.0569 354° North 371 427 14,000 -1,869 Descending Salt Lake Center
Thu 06:40:07 PM 40.5178 -112.0658 352° North 364 419 13,100 -1,770 Descending Salt Lake Center
Thu 06:40:48 PM 40.5711 -112.0697 357° North 365 420 12,200 -1,869 Descending Salt Lake Center
Thu 06:41:08 PM 40.6194 -112.0794 351° North 362 417 11,200 -1,161 Descending Salt Lake Center
Thu 06:41:50 PM 40.6875 -112.0853 356° North 349 402 11,000 -197 Descending Salt Lake Center
Thu 06:42:09 PM 40.7142 -112.0900 352° North 317 365 11,000  Level Salt Lake Center
Thu 06:42:52 PM 40.7656 -112.0931 357° North 280 322 11,000  Level Salt Lake Center
Thu 06:43:09 PM 40.7869 -112.0992 348° North 265 305 11,000 -492 Level Salt Lake Center
Thu 06:43:53 PM 40.8358 -112.1025 357° North 254 292 10,500 -885 Descending Salt Lake Center
Thu 06:44:10 PM 40.8572 -112.1067 352° North 249 287 10,100 -1,258 Descending Salt Lake Center
Thu 06:44:55 PM 40.9053 -112.1103 357° North 250 288 9,200 -985 Descending Salt Lake Center
Thu 06:45:17 PM 40.9342 -112.1147 353° North 253 291 9,000 -484 Descending Salt Lake Center
Thu 06:45:57 PM 40.9714 -112.1111 North 235 270 8,700 -950 Descending Salt Lake Center
Thu 06:46:58 PM 40.9792 -112.0433 81° East 205 236 7,400 -1,259 Descending Salt Lake Center
Thu 06:47:18 PM 40.9617 -112.0231 139° Southeast 198 228 7,000 -871 Descending Salt Lake Center
Thu 06:48:00 PM 40.9333 -112.0142 167° South 192 221 6,500 -984 Descending Salt Lake Center
Thu 06:48:19 PM 40.9078 -112.0131 178° South 196 226 6,000 -1,082 Descending Salt Lake Center
Thu 06:49:01 PM 40.8725 -112.0069 173° South 178 205 5,400 -800 Descending Salt Lake Center
Thu 06:49:19 PM 40.8614 -112.0061 177° South 165 190 5,200 -581 Descending Salt Lake Center
Thu 06:50:03 PM 40.8361 -112.0025 174° South 132 152 4,800 -590 Descending Salt Lake Center
Thu 06:50:20 PM 40.8264 -112.0039 186° South 127 146 4,600 -581 Descending Salt Lake Center
Thu 06:51:05 PM 40.8019 -111.9986 171° South 124 143 4,200 -533 Descending Salt Lake Center
Thu 06:53:00 PM 40.7884 -111.9778 135° Southeast  Level Estimated

Login

Don't have an account? Register now (free) for customized features, flight alerts, and more!